Maynard, Minnesota
Current Conditions -  °F | °C
As of 4:32 PM on Monday 22 Dec 2014 (Local Time) from KGDB Reporting Station
Drizzle Drizzle  
Wind Chill: 29°   Ceiling: 800
Heat Index: 37°   Visibility: 4mi
Dew Point: 36°   Wind: 10mph
Humidity: 96%   Direction: 100°E
Pressure: 29.51"   Gusts: 17mph
Location:  44.91°N, 95.47°W
Report Text: KGDB 222232Z AUTO 10009G15KT 4SM -DZ OVC008 03/02 A2951 RMK AO2 T00260020
Loading
Personal Weather Stations






























Interactive Weather Map New forecast layout! Learn more

10-Day Weather Forecast

Advertisements
Track Severe Weather on mobile